Time;durP1;ratioP1;P1;durP2;ratioP2;P2;SDS_P1;SDS_P2;PMS_P1;PMS_P2;Temp;Humidity;BMP_temperature;BMP_pressure;BME280_temperature;BME280_humidity;BME280_pressure;Samples;Min_cycle;Max_cycle;Signal;HPM_P1;HPM_P2
2024/01/12 00:01:37;;;;;;;22.97;17.60;;;0.40;85.00;;;;;;6252418;28;20247;-79
2024/01/12 00:04:41;;;;;;;27.73;18.33;;;0.50;85.00;;;;;;6235506;28;20227;-81
2024/01/12 00:07:45;;;;;;;26.07;18.27;;;0.50;84.70;;;;;;6238840;28;20226;-80
2024/01/12 00:10:49;;;;;;;28.03;18.77;;;0.50;84.80;;;;;;6226677;28;20231;-78
2024/01/12 00:13:53;;;;;;;26.20;17.37;;;0.50;84.80;;;;;;6224911;28;20281;-79
2024/01/12 00:16:56;;;;;;;26.10;17.83;;;0.50;84.80;;;;;;6233356;28;20238;-78
2024/01/12 00:20:00;;;;;;;27.90;17.00;;;0.40;85.00;;;;;;6221101;28;20388;-81
2024/01/12 00:23:03;;;;;;;23.83;16.93;;;0.40;85.10;;;;;;6220455;28;20239;-81
2024/01/12 00:26:08;;;;;;;23.20;17.60;;;0.40;85.10;;;;;;6231924;28;20370;-83
2024/01/12 00:29:14;;;;;;;24.27;16.07;;;0.40;85.20;;;;;;6214670;28;20235;-80
2024/01/12 00:32:19;;;;;;;29.97;17.37;;;0.40;85.30;;;;;;6251123;28;20230;-81
2024/01/12 00:35:22;;;;;;;25.40;17.00;;;0.40;85.40;;;;;;6258682;28;20248;-81
2024/01/12 00:38:25;;;;;;;22.40;16.67;;;0.40;85.40;;;;;;6261088;28;20256;-81
2024/01/12 00:41:30;;;;;;;24.33;17.73;;;0.40;85.40;;;;;;6237375;28;20234;-79
2024/01/12 00:44:33;;;;;;;28.00;18.07;;;0.40;85.40;;;;;;6261702;28;20316;-81
2024/01/12 00:47:36;;;;;;;23.60;16.30;;;0.40;85.40;;;;;;6248631;28;20903;-80
2024/01/12 00:50:39;;;;;;;23.67;17.47;;;0.40;85.40;;;;;;6249659;28;20730;-79
2024/01/12 00:53:43;;;;;;;25.67;16.63;;;0.40;85.20;;;;;;6260931;28;20622;-79
2024/01/12 00:56:47;;;;;;;28.23;16.97;;;0.40;85.20;;;;;;6249942;28;20231;-80
2024/01/12 00:59:51;;;;;;;27.93;17.47;;;0.40;85.20;;;;;;6241612;28;20353;-81
2024/01/12 01:02:54;;;;;;;27.20;17.63;;;0.40;85.30;;;;;;6257388;28;20238;-80
2024/01/12 01:05:57;;;;;;;24.30;17.20;;;0.40;85.30;;;;;;6252110;28;20237;-81
2024/01/12 01:09:01;;;;;;;25.87;18.93;;;0.40;85.20;;;;;;6261189;28;20233;-79
2024/01/12 01:12:07;;;;;;;26.97;18.03;;;0.40;85.30;;;;;;6261555;28;20237;-80
2024/01/12 01:15:13;;;;;;;31.43;19.27;;;0.40;85.40;;;;;;6253505;28;20238;-79
2024/01/12 01:18:17;;;;;;;29.33;18.70;;;0.40;85.30;;;;;;6245567;28;20253;-80
2024/01/12 01:21:21;;;;;;;26.67;17.83;;;0.40;85.30;;;;;;6245673;28;20409;-80
2024/01/12 01:24:27;;;;;;;29.83;18.47;;;0.40;85.30;;;;;;6227987;28;20384;-78
2024/01/12 01:27:31;;;;;;;27.87;17.77;;;0.40;85.30;;;;;;6255702;28;20233;-80
2024/01/12 01:30:34;;;;;;;27.63;18.10;;;0.40;85.40;;;;;;6261952;28;20242;-78
2024/01/12 01:33:37;;;;;;;26.03;17.70;;;0.40;85.30;;;;;;6262097;28;20238;-79
2024/01/12 01:36:41;;;;;;;30.30;18.00;;;0.30;85.40;;;;;;6261523;28;20229;-79
2024/01/12 01:39:44;;;;;;;25.90;17.63;;;0.40;85.40;;;;;;6253015;28;20315;-79
2024/01/12 01:42:49;;;;;;;29.43;18.67;;;0.40;85.40;;;;;;6249868;28;20230;-79
2024/01/12 01:45:53;;;;;;;25.90;17.47;;;0.40;85.30;;;;;;6247167;28;20319;-81
2024/01/12 01:48:56;;;;;;;27.33;17.73;;;0.40;85.30;;;;;;6252137;28;20313;-82
2024/01/12 01:52:00;;;;;;;27.47;17.60;;;0.40;85.30;;;;;;6251896;28;20237;-79
2024/01/12 01:55:04;;;;;;;31.10;17.67;;;0.30;85.40;;;;;;6252969;28;20237;-79
2024/01/12 01:58:09;;;;;;;26.83;17.43;;;0.40;85.50;;;;;;6231309;28;20364;-80
2024/01/12 02:01:13;;;;;;;31.43;18.07;;;0.40;85.30;;;;;;6268353;28;20245;-81
2024/01/12 02:04:17;;;;;;;24.50;17.53;;;0.40;85.20;;;;;;6249844;28;20238;-81
2024/01/12 02:07:20;;;;;;;27.40;18.10;;;0.30;85.40;;;;;;6251082;28;20256;-81
2024/01/12 02:10:23;;;;;;;26.77;17.33;;;0.20;85.50;;;;;;6256083;28;20234;-79
2024/01/12 02:13:30;;;;;;;26.00;17.17;;;0.30;85.70;;;;;;6244972;28;20703;-77
2024/01/12 02:16:34;;;;;;;23.87;17.50;;;0.30;85.50;;;;;;6248881;28;20872;-78
2024/01/12 02:19:37;;;;;;;25.27;17.70;;;0.30;85.40;;;;;;6251050;28;20242;-78
2024/01/12 02:22:42;;;;;;;27.13;17.73;;;0.20;85.50;;;;;;6252113;28;20275;-82
2024/01/12 02:25:45;;;;;;;28.37;17.57;;;0.30;85.70;;;;;;6271927;28;20234;-81
2024/01/12 02:28:49;;;;;;;23.40;16.90;;;0.20;85.60;;;;;;6247095;28;20263;-80
2024/01/12 02:31:52;;;;;;;22.87;17.17;;;0.20;85.70;;;;;;6260559;28;20233;-80
2024/01/12 02:34:56;;;;;;;22.53;16.17;;;0.30;85.60;;;;;;6254001;28;20240;-80
2024/01/12 02:38:01;;;;;;;28.03;16.87;;;0.30;85.60;;;;;;6252536;28;20250;-80
2024/01/12 02:41:04;;;;;;;24.83;17.50;;;0.30;85.50;;;;;;6258704;28;20242;-78
2024/01/12 02:44:07;;;;;;;25.17;18.10;;;0.30;85.50;;;;;;6264363;28;20240;-80
2024/01/12 02:47:12;;;;;;;27.37;16.87;;;0.30;85.30;;;;;;6257042;28;20307;-81
2024/01/12 02:50:15;;;;;;;25.70;16.90;;;0.30;85.40;;;;;;6262520;28;20233;-80
2024/01/12 02:53:20;;;;;;;29.93;18.17;;;0.30;85.40;;;;;;6253405;28;20252;-82
2024/01/12 02:56:26;;;;;;;29.33;17.10;;;0.20;85.40;;;;;;6265877;28;20318;-80
2024/01/12 02:59:30;;;;;;;27.13;17.07;;;0.20;85.40;;;;;;6255881;28;20238;-79
2024/01/12 03:02:33;;;;;;;25.37;16.23;;;0.30;85.50;;;;;;6254486;28;20262;-83
2024/01/12 03:05:37;;;;;;;25.83;16.27;;;0.30;85.20;;;;;;6254769;28;20297;-78
2024/01/12 03:08:41;;;;;;;30.43;16.90;;;0.30;85.00;;;;;;6246524;28;20248;-79
2024/01/12 03:11:44;;;;;;;27.00;17.37;;;0.30;85.00;;;;;;6247599;28;20754;-81
2024/01/12 03:14:47;;;;;;;26.70;17.23;;;0.20;85.30;;;;;;6252382;28;20333;-80
2024/01/12 03:17:51;;;;;;;25.17;15.90;;;0.20;85.40;;;;;;6243648;28;20234;-80
2024/01/12 03:20:54;;;;;;;20.77;16.27;;;0.20;85.20;;;;;;6247697;28;20282;-82
2024/01/12 03:23:59;;;;;;;25.33;16.43;;;0.20;85.20;;;;;;6265998;28;20317;-80
2024/01/12 03:27:03;;;;;;;25.10;16.60;;;0.20;85.10;;;;;;6248936;28;20226;-80
2024/01/12 03:30:07;;;;;;;24.73;16.10;;;0.10;85.20;;;;;;6255925;28;20265;-81
2024/01/12 03:33:11;;;;;;;24.37;16.50;;;0.20;85.40;;;;;;6257308;28;20226;-81
2024/01/12 03:36:14;;;;;;;25.50;16.73;;;0.20;85.40;;;;;;6259887;28;20234;-78
2024/01/12 03:39:19;;;;;;;27.87;17.47;;;0.20;85.30;;;;;;6247838;28;20226;-82
2024/01/12 03:42:22;;;;;;;27.03;16.37;;;0.20;85.30;;;;;;6252351;28;20241;-82
2024/01/12 03:45:25;;;;;;;25.80;16.63;;;0.20;85.30;;;;;;6247781;28;20270;-81
2024/01/12 03:48:28;;;;;;;27.53;17.00;;;0.10;85.40;;;;;;6261789;28;20293;-80
2024/01/12 03:51:32;;;;;;;30.07;17.63;;;0.10;85.50;;;;;;6256588;28;20238;-80
2024/01/12 03:54:37;;;;;;;28.47;17.53;;;0.20;85.50;;;;;;6247411;28;20273;-81
2024/01/12 03:57:41;;;;;;;24.30;16.50;;;0.10;85.50;;;;;;6246188;28;20231;-81
2024/01/12 04:00:45;;;;;;;23.63;15.23;;;0.10;85.60;;;;;;6253630;28;20269;-81
2024/01/12 04:03:48;;;;;;;21.13;14.63;;;0.20;85.40;;;;;;6262771;28;20806;-80
2024/01/12 04:06:51;;;;;;;22.20;15.30;;;0.20;85.30;;;;;;6261802;28;20242;-81
2024/01/12 04:09:57;;;;;;;21.83;14.63;;;0.20;85.10;;;;;;6245637;28;20238;-79
2024/01/12 04:13:00;;;;;;;24.17;15.63;;;0.10;85.20;;;;;;6251804;28;20269;-81
2024/01/12 04:16:04;;;;;;;20.63;15.07;;;0.10;85.10;;;;;;6251263;28;20230;-81
2024/01/12 04:19:07;;;;;;;19.77;14.40;;;0.10;85.00;;;;;;6263259;28;20333;-81
2024/01/12 04:22:10;;;;;;;22.87;15.20;;;0.00;85.20;;;;;;6262115;28;20713;-78
2024/01/12 04:25:15;;;;;;;19.83;14.50;;;0.10;85.00;;;;;;6262027;28;20234;-80
2024/01/12 04:28:18;;;;;;;20.00;15.03;;;0.00;85.00;;;;;;6244197;28;20233;-80
2024/01/12 04:31:21;;;;;;;20.90;15.13;;;0.00;85.00;;;;;;6248110;28;20777;-81
2024/01/12 04:34:24;;;;;;;24.00;13.73;;;0.00;85.00;;;;;;6263471;28;20248;-82
2024/01/12 04:37:28;;;;;;;21.67;14.67;;;0.00;84.90;;;;;;6251610;28;20371;-81
2024/01/12 04:40:33;;;;;;;26.00;15.07;;;0.00;84.90;;;;;;6255005;28;20342;-81
2024/01/12 04:43:36;;;;;;;27.23;15.70;;;0.00;84.90;;;;;;6249993;28;20238;-81
2024/01/12 04:46:39;;;;;;;21.53;15.10;;;0.00;85.00;;;;;;6252654;28;20847;-80
2024/01/12 04:49:42;;;;;;;23.67;14.77;;;0.10;84.90;;;;;;6260758;28;20261;-81
2024/01/12 04:52:48;;;;;;;19.30;14.80;;;0.10;84.50;;;;;;6246383;28;20229;-79
2024/01/12 04:55:53;;;;;;;20.17;13.67;;;0.00;84.50;;;;;;6251318;28;20774;-81
2024/01/12 04:58:57;;;;;;;17.77;12.57;;;0.10;84.50;;;;;;6249665;28;20316;-80
2024/01/12 05:02:00;;;;;;;16.97;12.90;;;0.10;84.20;;;;;;6256206;28;20303;-80
2024/01/12 05:05:04;;;;;;;16.23;12.00;;;0.00;84.00;;;;;;6247661;28;20279;-81
2024/01/12 05:08:07;;;;;;;17.27;13.20;;;0.00;84.00;;;;;;6251232;28;20234;-80
2024/01/12 05:11:12;;;;;;;21.87;14.43;;;0.00;84.00;;;;;;6250224;28;20226;-81
2024/01/12 05:14:15;;;;;;;23.67;14.50;;;0.00;84.00;;;;;;6251549;28;20230;-80
2024/01/12 05:17:19;;;;;;;24.70;14.80;;;0.00;84.20;;;;;;6258292;28;20726;-81
2024/01/12 05:20:22;;;;;;;23.87;15.00;;;0.00;84.20;;;;;;6258911;28;20225;-80
2024/01/12 05:23:25;;;;;;;24.37;15.53;;;0.00;84.20;;;;;;6261290;28;20240;-80
2024/01/12 05:26:30;;;;;;;19.67;14.87;;;0.00;84.00;;;;;;6251480;28;20328;-80
2024/01/12 05:29:34;;;;;;;25.10;16.07;;;0.00;84.20;;;;;;6243789;28;20245;-81
2024/01/12 05:32:37;;;;;;;22.60;15.57;;;0.00;84.00;;;;;;6250769;28;20243;-80
2024/01/12 05:35:40;;;;;;;24.73;15.97;;;0.00;84.20;;;;;;6265703;28;20740;-79
2024/01/12 05:38:44;;;;;;;20.70;15.07;;;0.00;84.00;;;;;;6261121;28;20263;-81
2024/01/12 05:41:48;;;;;;;20.73;15.40;;;0.00;84.00;;;;;;6256496;28;20234;-81
2024/01/12 05:44:51;;;;;;;22.57;14.97;;;0.00;83.90;;;;;;6269463;28;20265;-81
2024/01/12 05:47:54;;;;;;;20.37;14.90;;;0.00;83.80;;;;;;6262638;28;20245;-82
2024/01/12 05:50:58;;;;;;;21.23;14.77;;;0.00;83.70;;;;;;6257388;28;20249;-80
2024/01/12 05:54:01;;;;;;;22.20;14.67;;;0.00;83.70;;;;;;6253425;28;20257;-82
2024/01/12 05:57:06;;;;;;;19.37;14.70;;;0.00;83.60;;;;;;6257157;28;20233;-80
2024/01/12 06:00:11;;;;;;;19.90;13.83;;;0.00;83.60;;;;;;6251439;28;20335;-79
2024/01/12 06:03:14;;;;;;;20.33;13.73;;;0.00;83.70;;;;;;6256715;28;20614;-79
2024/01/12 06:06:18;;;;;;;21.37;14.80;;;0.00;83.40;;;;;;6253440;28;20234;-80
2024/01/12 06:09:22;;;;;;;23.13;15.10;;;-0.10;83.50;;;;;;6253674;28;20237;-80
2024/01/12 06:12:27;;;;;;;18.60;13.87;;;0.00;83.40;;;;;;6260477;28;20238;-80
2024/01/12 06:15:30;;;;;;;19.00;13.97;;;-0.10;83.10;;;;;;6259771;28;20946;-81
2024/01/12 06:18:33;;;;;;;20.67;14.33;;;-0.10;83.20;;;;;;6261092;28;20884;-82
2024/01/12 06:21:37;;;;;;;27.43;16.70;;;-0.10;83.50;;;;;;6281164;28;20373;-78
2024/01/12 06:24:42;;;;;;;23.40;15.93;;;-0.10;83.50;;;;;;6264664;28;20245;-80
2024/01/12 06:27:47;;;;;;;26.73;16.80;;;-0.10;83.50;;;;;;6264333;28;20380;-80
2024/01/12 06:30:53;;;;;;;23.20;16.43;;;-0.10;83.80;;;;;;6267029;28;20241;-77
2024/01/12 06:33:57;;;;;;;21.97;15.83;;;-0.20;83.90;;;;;;6263111;28;20233;-76
2024/01/12 06:37:00;;;;;;;24.07;15.13;;;-0.10;83.90;;;;;;6271182;28;20329;-76
2024/01/12 06:40:04;;;;;;;28.37;16.73;;;-0.10;83.70;;;;;;6268096;28;20245;-77
2024/01/12 06:43:09;;;;;;;25.93;16.37;;;-0.10;83.70;;;;;;6269300;28;20230;-76
2024/01/12 06:46:12;;;;;;;29.60;17.87;;;-0.10;83.90;;;;;;6269533;28;20245;-76
2024/01/12 06:49:15;;;;;;;28.83;17.53;;;-0.10;83.90;;;;;;6267141;28;20245;-77
2024/01/12 06:52:18;;;;;;;26.33;16.80;;;-0.10;83.90;;;;;;6269088;28;20510;-77
2024/01/12 06:55:21;;;;;;;29.20;17.73;;;-0.20;84.00;;;;;;6267000;28;20276;-77
2024/01/12 06:58:26;;;;;;;27.37;17.87;;;-0.20;84.00;;;;;;6267725;28;20317;-76
2024/01/12 07:01:29;;;;;;;26.87;17.30;;;-0.20;84.20;;;;;;6269117;28;21493;-76
2024/01/12 07:04:32;;;;;;;28.77;16.23;;;-0.20;84.00;;;;;;6266459;28;20760;-76
2024/01/12 07:07:36;;;;;;;25.13;15.90;;;-0.20;84.20;;;;;;6268322;28;20233;-76
2024/01/12 07:10:39;;;;;;;21.90;15.17;;;-0.20;84.00;;;;;;6267823;28;20306;-76
2024/01/12 07:13:43;;;;;;;20.97;15.23;;;-0.30;84.00;;;;;;6267422;28;20326;-77
2024/01/12 07:16:46;;;;;;;24.87;15.50;;;-0.20;84.00;;;;;;6267426;28;20241;-77
2024/01/12 07:19:49;;;;;;;20.30;14.77;;;-0.20;84.00;;;;;;6267456;28;20319;-78
2024/01/12 07:22:53;;;;;;;23.33;15.27;;;-0.30;84.00;;;;;;6269681;28;20241;-76
2024/01/12 07:25:56;;;;;;;21.57;15.20;;;-0.30;84.00;;;;;;6266877;28;20244;-76
2024/01/12 07:29:01;;;;;;;19.80;13.70;;;-0.30;84.00;;;;;;6266743;28;20237;-77
2024/01/12 07:32:04;;;;;;;22.30;14.83;;;-0.30;83.90;;;;;;6267045;28;20336;-79
2024/01/12 07:35:09;;;;;;;19.03;13.30;;;-0.40;83.80;;;;;;6267764;28;20229;-77
2024/01/12 07:38:13;;;;;;;14.23;12.30;;;-0.40;83.60;;;;;;6260599;28;21141;-77
2024/01/12 07:41:16;;;;;;;19.17;13.23;;;-0.40;83.60;;;;;;6268740;28;20384;-76
2024/01/12 07:44:21;;;;;;;18.30;12.87;;;-0.40;83.70;;;;;;6266539;28;20242;-75
2024/01/12 07:47:24;;;;;;;20.10;13.60;;;-0.50;83.70;;;;;;6269157;28;20249;-78
2024/01/12 07:50:27;;;;;;;19.93;14.83;;;-0.40;83.80;;;;;;6271202;28;20230;-76
2024/01/12 07:53:30;;;;;;;20.60;13.93;;;-0.40;83.60;;;;;;6272252;28;20998;-79
2024/01/12 07:56:33;;;;;;;18.37;14.53;;;-0.40;83.50;;;;;;6271288;28;20245;-78
2024/01/12 07:59:38;;;;;;;22.50;15.33;;;-0.40;83.60;;;;;;6263379;28;20244;-79
2024/01/12 08:02:41;;;;;;;22.30;16.27;;;-0.40;83.30;;;;;;6271010;28;20363;-75
2024/01/12 08:05:45;;;;;;;19.43;15.87;;;-0.40;83.20;;;;;;6267278;28;20244;-75
2024/01/12 08:08:48;;;;;;;19.43;14.40;;;-0.40;83.30;;;;;;6265418;28;21511;-76
2024/01/12 08:11:51;;;;;;;17.17;14.43;;;-0.40;83.20;;;;;;6268211;28;20238;-76
2024/01/12 08:14:56;;;;;;;21.50;15.07;;;-0.40;83.20;;;;;;6263884;28;20242;-75
2024/01/12 08:18:00;;;;;;;23.27;15.77;;;-0.50;83.30;;;;;;6265296;28;20238;-78
2024/01/12 08:21:04;;;;;;;17.93;14.60;;;-0.50;83.30;;;;;;6269636;28;20241;-75
2024/01/12 08:24:07;;;;;;;22.70;15.43;;;-0.50;83.40;;;;;;6268701;28;20246;-75
2024/01/12 08:27:11;;;;;;;22.60;14.83;;;-0.50;83.40;;;;;;6264473;28;20249;-77
2024/01/12 08:30:18;;;;;;;18.00;13.20;;;-0.50;83.40;;;;;;6263557;28;20319;-76
2024/01/12 08:33:22;;;;;;;17.40;13.17;;;-0.40;83.40;;;;;;6261525;28;20225;-76
2024/01/12 08:36:25;;;;;;;22.07;13.47;;;-0.40;83.40;;;;;;6268003;28;20949;-77
2024/01/12 08:39:29;;;;;;;17.97;12.97;;;-0.40;83.60;;;;;;6266399;28;21057;-76
2024/01/12 08:42:32;;;;;;;17.97;12.97;;;-0.40;83.60;;;;;;6264495;28;20328;-77
2024/01/12 08:45:37;;;;;;;17.20;12.20;;;-0.30;83.60;;;;;;6265435;28;20265;-77
2024/01/12 08:48:41;;;;;;;17.13;12.47;;;-0.30;83.40;;;;;;6269483;28;20327;-77
2024/01/12 08:51:44;;;;;;;15.50;11.67;;;-0.30;83.60;;;;;;6264347;28;20248;-76
2024/01/12 08:54:47;;;;;;;16.07;11.33;;;-0.30;83.70;;;;;;6263703;28;20257;-77
2024/01/12 08:57:52;;;;;;;17.20;12.37;;;-0.20;83.50;;;;;;6263327;28;20236;-75
2024/01/12 09:00:56;;;;;;;16.43;11.70;;;-0.30;83.20;;;;;;6264133;28;21546;-79
2024/01/12 09:04:01;;;;;;;14.30;11.67;;;-0.30;83.50;;;;;;6263786;28;20284;-78
2024/01/12 09:07:05;;;;;;;13.27;10.97;;;-0.30;83.40;;;;;;6267788;28;20237;-75
2024/01/12 09:10:09;;;;;;;16.57;11.50;;;-0.20;83.20;;;;;;6265304;28;20239;-78
2024/01/12 09:13:12;;;;;;;13.93;11.60;;;-0.20;83.00;;;;;;6264923;28;20233;-76
2024/01/12 09:16:17;;;;;;;14.77;11.40;;;-0.30;82.80;;;;;;6264203;28;20255;-76
2024/01/12 09:19:20;;;;;;;14.30;10.97;;;-0.20;82.90;;;;;;6265708;28;20234;-77
2024/01/12 09:22:23;;;;;;;15.07;12.13;;;-0.20;82.90;;;;;;6265514;28;21528;-76
2024/01/12 09:25:27;;;;;;;16.53;11.53;;;-0.20;83.10;;;;;;6266039;28;20261;-76
2024/01/12 09:28:30;;;;;;;12.40;10.93;;;-0.10;83.00;;;;;;6259278;28;20265;-75
2024/01/12 09:31:34;;;;;;;11.13;10.03;;;-0.10;83.10;;;;;;6262049;28;20241;-79
2024/01/12 09:34:38;;;;;;;14.80;10.03;;;-0.10;83.10;;;;;;6261191;28;20598;-77
2024/01/12 09:37:42;;;;;;;11.33;10.23;;;-0.20;83.00;;;;;;6260739;28;20325;-77
2024/01/12 09:40:45;;;;;;;10.97;9.73;;;-0.20;83.30;;;;;;6261541;28;20245;-75
2024/01/12 09:43:49;;;;;;;11.23;10.10;;;-0.10;83.00;;;;;;6259130;28;20244;-78
2024/01/12 09:46:57;;;;;;;14.30;10.20;;;-0.10;82.70;;;;;;6252873;28;20300;-75
2024/01/12 09:50:00;;;;;;;12.80;10.67;;;-0.10;82.70;;;;;;6261096;28;21136;-75
2024/01/12 09:53:04;;;;;;;10.30;8.77;;;-0.10;82.90;;;;;;6260776;28;20379;-76
2024/01/12 09:56:08;;;;;;;13.93;9.87;;;-0.10;82.70;;;;;;6262909;28;21733;-76
2024/01/12 09:59:11;;;;;;;11.37;9.63;;;-0.10;82.40;;;;;;6265093;28;20237;-75
2024/01/12 10:02:17;;;;;;;11.87;9.73;;;-0.10;82.80;;;;;;6265392;28;20248;-80
2024/01/12 10:05:22;;;;;;;13.63;10.03;;;-0.20;83.00;;;;;;6263077;28;20283;-77
2024/01/12 10:08:36;;;;;;;14.30;10.93;;;-0.30;83.20;;;;;;6264741;28;20240;-76
2024/01/12 10:11:40;;;;;;;9.47;8.47;;;-0.20;83.40;;;;;;6262196;28;20236;-75
2024/01/12 10:14:43;;;;;;;9.13;8.33;;;-0.20;83.50;;;;;;6265565;28;20237;-77
2024/01/12 10:17:51;;;;;;;9.67;8.77;;;-0.10;83.30;;;;;;6266597;28;20234;-74
2024/01/12 10:20:55;;;;;;;11.70;8.83;;;-0.10;82.80;;;;;;6264390;28;20710;-74
2024/01/12 10:24:03;;;;;;;9.47;8.47;;;0.00;82.50;;;;;;6265408;28;20234;-76
2024/01/12 10:27:06;;;;;;;9.63;8.70;;;0.00;82.20;;;;;;6264046;28;20238;-76
2024/01/12 10:30:11;;;;;;;9.40;8.60;;;-0.10;82.30;;;;;;6265287;28;20236;-75
2024/01/12 10:33:18;;;;;;;10.13;9.13;;;-0.10;82.30;;;;;;6267055;28;20272;-78
2024/01/12 10:36:22;;;;;;;11.83;9.67;;;-0.10;82.50;;;;;;6264166;28;21503;-75
2024/01/12 10:39:28;;;;;;;11.10;9.17;;;-0.10;82.40;;;;;;6267262;28;20260;-75
2024/01/12 10:42:31;;;;;;;9.23;8.37;;;-0.20;82.60;;;;;;6268443;28;20233;-74
2024/01/12 10:45:37;;;;;;;9.60;8.60;;;-0.30;82.80;;;;;;6258791;28;20256;-74
2024/01/12 10:48:56;;;;;;;12.10;8.53;;;-0.20;82.80;;;;;;6267583;28;20229;-76
2024/01/12 10:52:05;;;;;;;10.53;9.17;;;-0.10;82.50;;;;;;6268931;28;20311;-78
2024/01/12 10:55:12;;;;;;;10.50;9.43;;;-0.10;82.50;;;;;;6266075;28;20894;-77
2024/01/12 10:58:19;;;;;;;13.03;10.03;;;-0.10;82.70;;;;;;6265677;28;20248;-74
2024/01/12 11:01:22;;;;;;;14.37;10.10;;;-0.10;83.00;;;;;;6267883;28;20956;-76
2024/01/12 11:04:29;;;;;;;14.23;10.90;;;-0.10;83.30;;;;;;6265074;28;20250;-76
2024/01/12 11:07:33;;;;;;;13.70;10.80;;;-0.10;83.50;;;;;;6268610;28;20366;-75
2024/01/12 11:10:40;;;;;;;15.77;11.27;;;-0.10;83.50;;;;;;6265028;28;20874;-76
2024/01/12 11:13:45;;;;;;;14.00;10.23;;;-0.20;83.60;;;;;;6264067;28;20845;-77
2024/01/12 11:16:48;;;;;;;18.70;11.80;;;-0.20;83.30;;;;;;6265292;28;20321;-78
2024/01/12 11:19:52;;;;;;;17.27;12.40;;;-0.20;83.30;;;;;;6263544;28;20325;-74
2024/01/12 11:22:55;;;;;;;16.47;11.93;;;-0.30;83.50;;;;;;6266330;28;20697;-76
2024/01/12 11:25:59;;;;;;;17.83;12.87;;;-0.30;83.60;;;;;;6263862;28;20237;-76
2024/01/12 11:29:02;;;;;;;16.07;11.97;;;-0.30;83.50;;;;;;6264223;28;20428;-77
2024/01/12 11:32:06;;;;;;;14.60;11.60;;;-0.30;83.60;;;;;;6265750;28;20245;-76
2024/01/12 11:35:13;;;;;;;14.10;11.97;;;-0.40;83.70;;;;;;6266561;28;20233;-76
2024/01/12 11:38:19;;;;;;;15.97;12.50;;;-0.40;84.00;;;;;;6267498;28;20883;-76
2024/01/12 11:41:28;;;;;;;15.10;11.87;;;-0.40;84.00;;;;;;6264946;28;20372;-75
2024/01/12 11:44:33;;;;;;;12.97;11.10;;;-0.30;84.00;;;;;;6266124;28;20245;-75
2024/01/12 11:47:38;;;;;;;16.37;12.00;;;-0.30;83.90;;;;;;6263587;28;20306;-75
2024/01/12 11:50:43;;;;;;;14.20;10.87;;;-0.30;83.70;;;;;;6263664;28;20241;-77
2024/01/12 11:53:50;;;;;;;13.60;11.07;;;-0.30;83.60;;;;;;6266134;28;20238;-76
2024/01/12 11:56:53;;;;;;;16.17;11.30;;;-0.30;83.60;;;;;;6267535;28;20234;-75
2024/01/12 11:59:56;;;;;;;13.47;10.67;;;-0.30;83.50;;;;;;6265573;28;21489;-75
2024/01/12 12:03:00;;;;;;;12.20;10.30;;;-0.30;83.60;;;;;;6267951;28;20503;-76
2024/01/12 12:06:06;;;;;;;12.60;10.63;;;-0.30;83.60;;;;;;6267282;28;20913;-75
2024/01/12 12:09:09;;;;;;;16.63;11.90;;;-0.30;83.40;;;;;;6266047;28;20244;-76
2024/01/12 12:12:12;;;;;;;15.97;10.90;;;-0.30;83.40;;;;;;6267840;28;20249;-77
2024/01/12 12:15:16;;;;;;;21.40;14.60;;;-0.20;83.30;;;;;;6265614;28;20865;-75
2024/01/12 12:18:20;;;;;;;23.03;13.30;;;-0.20;83.20;;;;;;6265545;28;20777;-76
2024/01/12 12:21:24;;;;;;;21.07;13.27;;;-0.20;83.40;;;;;;6266298;28;20230;-77
2024/01/12 12:24:29;;;;;;;18.27;12.17;;;-0.30;83.30;;;;;;6264858;28;20238;-77
2024/01/12 12:27:34;;;;;;;23.00;13.30;;;-0.40;83.50;;;;;;6264755;28;20945;-75
2024/01/12 12:30:40;;;;;;;21.63;14.70;;;-0.50;84.00;;;;;;6265157;28;20966;-74
2024/01/12 12:33:44;;;;;;;21.90;13.67;;;-0.50;84.20;;;;;;6263853;28;20242;-77
2024/01/12 12:36:50;;;;;;;20.50;13.87;;;-0.50;84.10;;;;;;6264280;28;20360;-76
2024/01/12 12:39:55;;;;;;;19.80;13.63;;;-0.50;84.20;;;;;;6237000;28;20226;-75
2024/01/12 12:42:58;;;;;;;20.60;13.07;;;-0.50;84.00;;;;;;6262346;28;20411;-75
2024/01/12 12:46:02;;;;;;;19.13;13.57;;;-0.50;84.30;;;;;;6265353;28;20327;-75
2024/01/12 12:49:09;;;;;;;23.93;13.53;;;-0.40;84.20;;;;;;6263963;28;20302;-75
2024/01/12 12:52:14;;;;;;;21.23;12.90;;;-0.40;84.00;;;;;;6266359;28;20241;-75
2024/01/12 12:55:18;;;;;;;16.00;12.83;;;-0.40;84.00;;;;;;6266117;28;20330;-75
2024/01/12 12:58:22;;;;;;;20.43;12.10;;;-0.50;84.10;;;;;;6217195;28;20501;-76
2024/01/12 13:01:25;;;;;;;19.17;12.07;;;-0.50;84.30;;;;;;6217032;28;20246;-77
2024/01/12 13:04:28;;;;;;;17.43;12.13;;;-0.50;84.00;;;;;;6254606;28;20361;-75
2024/01/12 13:07:33;;;;;;;20.07;13.07;;;-0.50;84.00;;;;;;6256223;28;20261;-76
2024/01/12 13:10:36;;;;;;;16.70;12.03;;;-0.50;84.00;;;;;;6264321;28;20241;-75
2024/01/12 13:13:39;;;;;;;20.73;13.70;;;-0.50;84.00;;;;;;6264439;28;20238;-75
2024/01/12 13:16:42;;;;;;;19.57;13.13;;;-0.60;84.00;;;;;;6265523;28;20245;-77
2024/01/12 13:19:46;;;;;;;19.97;11.93;;;-0.70;84.50;;;;;;6255400;28;20376;-78
2024/01/12 13:22:51;;;;;;;20.33;12.73;;;-0.70;84.50;;;;;;6265622;28;20394;-77
2024/01/12 13:25:54;;;;;;;17.30;11.63;;;-0.70;84.40;;;;;;6258169;28;20244;-76
2024/01/12 13:28:57;;;;;;;19.23;12.53;;;-0.70;84.60;;;;;;6268912;28;20753;-77
2024/01/12 13:32:02;;;;;;;18.67;12.50;;;-0.70;84.60;;;;;;6261643;28;21095;-75
2024/01/12 13:35:07;;;;;;;19.97;12.70;;;-0.70;84.30;;;;;;6255097;28;20290;-75
2024/01/12 13:38:12;;;;;;;19.67;13.20;;;-0.70;84.40;;;;;;6264015;28;20230;-75
2024/01/12 13:41:15;;;;;;;19.07;13.73;;;-0.80;84.30;;;;;;6265220;28;20240;-74
2024/01/12 13:44:18;;;;;;;19.07;13.60;;;-0.70;84.50;;;;;;6262858;28;20248;-77
2024/01/12 13:47:21;;;;;;;18.90;13.33;;;-0.70;84.80;;;;;;6265172;28;20248;-76
2024/01/12 13:50:24;;;;;;;20.43;13.20;;;-0.70;84.70;;;;;;6264475;28;20553;-77
2024/01/12 13:53:30;;;;;;;21.77;13.07;;;-0.80;84.50;;;;;;6267777;28;20864;-79
2024/01/12 13:56:33;;;;;;;19.97;13.60;;;-0.80;84.70;;;;;;6263198;28;20322;-75
2024/01/12 13:59:37;;;;;;;23.23;12.60;;;-0.90;84.90;;;;;;6264556;28;20904;-80
2024/01/12 14:02:40;;;;;;;22.47;13.63;;;-0.70;84.80;;;;;;6266092;28;20238;-73
2024/01/12 14:05:44;;;;;;;17.40;12.23;;;-0.70;84.70;;;;;;6266644;28;20225;-76
2024/01/12 14:08:48;;;;;;;17.73;12.17;;;-0.70;84.40;;;;;;6265817;28;20302;-77
2024/01/12 14:11:53;;;;;;;18.03;12.53;;;-0.70;84.30;;;;;;6269674;28;20256;-77
2024/01/12 14:14:56;;;;;;;22.27;13.37;;;-0.70;84.30;;;;;;6269559;28;20238;-76
2024/01/12 14:18:00;;;;;;;27.73;15.10;;;-0.70;84.20;;;;;;6267645;28;20244;-78
2024/01/12 14:21:03;;;;;;;28.27;15.43;;;-0.70;84.00;;;;;;6270685;28;20744;-75
2024/01/12 14:24:08;;;;;;;27.67;15.17;;;-0.90;84.50;;;;;;6269802;28;20245;-75
2024/01/12 14:27:15;;;;;;;28.33;16.10;;;-0.90;84.80;;;;;;6268421;28;20238;-75
2024/01/12 14:30:19;;;;;;;28.30;16.23;;;-0.90;84.90;;;;;;6270452;28;20251;-74
2024/01/12 14:33:22;;;;;;;32.07;15.87;;;-0.90;84.90;;;;;;6267253;28;20241;-76
2024/01/12 14:36:27;;;;;;;27.90;16.30;;;-0.90;84.80;;;;;;6270719;28;20897;-79
2024/01/12 14:39:31;;;;;;;31.50;17.07;;;-0.90;84.70;;;;;;6267910;28;20742;-79
2024/01/12 14:42:35;;;;;;;31.80;17.50;;;-1.00;84.70;;;;;;6268325;28;20234;-77
2024/01/12 14:45:39;;;;;;;28.47;17.70;;;-1.00;84.80;;;;;;6268478;28;20245;-77
2024/01/12 14:48:42;;;;;;;32.10;17.83;;;-1.10;84.70;;;;;;6267450;28;20237;-77
2024/01/12 14:51:47;;;;;;;33.27;17.23;;;-1.10;85.00;;;;;;6271434;28;20721;-77
2024/01/12 14:54:52;;;;;;;31.17;17.53;;;-1.10;85.20;;;;;;6264022;28;20270;-77
2024/01/12 14:57:56;;;;;;;31.23;18.40;;;-1.10;85.10;;;;;;6262145;28;20249;-75
2024/01/12 15:00:59;;;;;;;30.17;18.77;;;-1.00;84.80;;;;;;6221135;28;20521;-75
2024/01/12 15:04:05;;;;;;;31.70;18.37;;;-0.90;84.60;;;;;;6277206;28;20298;-77
2024/01/12 15:07:21;;;;;;;32.40;18.50;;;-0.90;84.00;;;;;;6266148;28;20360;-78
2024/01/12 15:10:25;;;;;;;31.37;18.60;;;-0.90;84.00;;;;;;6262426;28;20237;-76
2024/01/12 15:13:29;;;;;;;30.07;18.87;;;-0.90;83.80;;;;;;6261970;28;21354;-77
2024/01/12 15:16:32;;;;;;;31.13;18.53;;;-0.90;83.70;;;;;;6266012;28;20240;-77
2024/01/12 15:19:37;;;;;;;30.83;19.00;;;-0.80;83.60;;;;;;6267825;28;20245;-77
2024/01/12 15:22:40;;;;;;;35.73;21.83;;;-0.90;83.50;;;;;;6266991;28;20251;-77
2024/01/12 15:25:45;;;;;;;36.17;20.50;;;-0.90;83.60;;;;;;6265056;28;20248;-77
2024/01/12 15:28:49;;;;;;;36.77;21.50;;;-0.90;83.80;;;;;;6268089;28;20234;-76
2024/01/12 15:31:52;;;;;;;34.17;20.20;;;-0.90;83.80;;;;;;6267667;28;20832;-76
2024/01/12 15:34:55;;;;;;;35.63;20.07;;;-1.00;84.00;;;;;;6269124;28;22002;-75
2024/01/12 15:37:58;;;;;;;35.57;21.20;;;-1.00;84.00;;;;;;6266514;28;21077;-75